Time;durP1;ratioP1;P1;durP2;ratioP2;P2;SDS_P1;SDS_P2;PMS_P1;PMS_P2;Temp;Humidity;BMP_temperature;BMP_pressure;BME280_temperature;BME280_humidity;BME280_pressure;Samples;Min_cycle;Max_cycle;Signal;HPM_P1;HPM_P2
2021/01/19 00:00:58;;;;;;;32.58;13.10;;;;;;;-15.66;78.01;101088.55;1774908;80;21006;-33
2021/01/19 00:03:27;;;;;;;32.95;12.58;;;;;;;-15.65;78.00;101089.45;1774911;80;20980;-32
2021/01/19 00:05:55;;;;;;;39.08;13.62;;;;;;;-15.63;78.00;101096.29;1774935;80;21416;-32
2021/01/19 00:08:24;;;;;;;34.58;11.68;;;;;;;-15.63;77.92;101100.02;1775156;80;20935;-31
2021/01/19 00:10:52;;;;;;;37.75;11.88;;;;;;;-15.61;77.94;101102.66;1775166;80;20876;-32
2021/01/19 00:13:20;;;;;;;36.45;13.25;;;;;;;-15.61;77.86;101093.59;1774965;80;20983;-31
2021/01/19 00:15:48;;;;;;;31.97;11.50;;;;;;;-15.58;77.88;101095.85;1775104;80;22240;-32
2021/01/19 00:18:16;;;;;;;30.52;12.10;;;;;;;-15.56;77.78;101095.63;1774391;80;21320;-31
2021/01/19 00:20:44;;;;;;;32.13;12.70;;;;;;;-15.53;77.82;101092.20;1775000;80;20947;-31
2021/01/19 00:23:12;;;;;;;34.43;11.15;;;;;;;-15.53;77.69;101085.64;1774978;80;20919;-32
2021/01/19 00:25:44;;;;;;;33.38;13.15;;;;;;;-15.53;77.72;101086.89;1775069;80;20995;-31
2021/01/19 00:28:13;;;;;;;33.92;12.82;;;;;;;-15.52;77.67;101082.81;1774993;80;20888;-32
2021/01/19 00:30:42;;;;;;;43.52;14.65;;;;;;;-15.54;77.66;101091.34;1775045;80;22739;-33
2021/01/19 00:33:11;;;;;;;26.87;10.55;;;;;;;-15.54;77.65;101086.72;1774910;80;21042;-31
2021/01/19 00:35:41;;;;;;;32.42;10.30;;;;;;;-15.52;77.61;101088.64;1775116;80;21502;-31
2021/01/19 00:38:09;;;;;;;35.63;11.60;;;;;;;-15.56;77.65;101085.35;1774930;80;21541;-32
2021/01/19 00:40:37;;;;;;;35.73;13.65;;;;;;;-15.60;77.62;101081.69;1774999;80;20995;-31
2021/01/19 00:43:05;;;;;;;47.43;13.90;;;;;;;-15.61;77.64;101086.14;1774989;80;21189;-32
2021/01/19 00:45:33;;;;;;;27.85;11.38;;;;;;;-15.66;77.69;101073.66;1774956;80;20896;-31
2021/01/19 00:48:02;;;;;;;33.65;11.35;;;;;;;-15.72;77.71;101070.59;1774959;80;20932;-31
2021/01/19 00:50:32;;;;;;;32.48;12.20;;;;;;;-15.76;77.90;101073.51;1753467;80;20924;-32
2021/01/19 00:53:02;;;;;;;39.20;13.65;;;;;;;-15.82;77.99;101072.89;1775011;80;20912;-32
2021/01/19 00:55:30;;;;;;;33.80;12.63;;;;;;;-15.87;78.08;101067.50;1775048;80;21198;-32
2021/01/19 00:57:58;;;;;;;28.75;11.38;;;;;;;-15.91;78.16;101067.59;1774873;80;21086;-32
2021/01/19 01:00:26;;;;;;;37.58;13.53;;;;;;;-15.95;78.30;101071.75;1774974;80;21003;-31
2021/01/19 01:02:54;;;;;;;35.00;11.70;;;;;;;-15.99;78.34;101072.53;1774889;80;20935;-31
2021/01/19 01:05:22;;;;;;;37.10;12.37;;;;;;;-16.04;78.41;101075.79;1775099;80;20999;-31
2021/01/19 01:07:51;;;;;;;31.75;11.78;;;;;;;-16.09;78.52;101074.47;1775013;80;21205;-31
2021/01/19 01:10:18;;;;;;;43.78;15.23;;;;;;;-16.12;78.75;101070.45;1774943;80;21002;-32
2021/01/19 01:12:46;;;;;;;31.42;10.78;;;;;;;-16.14;78.77;101068.19;1774980;80;21035;-32
2021/01/19 01:15:19;;;;;;;40.45;15.15;;;;;;;-16.19;78.81;101073.92;1774965;80;20992;-31
2021/01/19 01:17:47;;;;;;;44.27;14.20;;;;;;;-16.25;78.85;101084.49;1774908;80;21022;-32
2021/01/19 01:20:15;;;;;;;23.85;8.83;;;;;;;-16.30;78.94;101082.78;1779142;80;21209;-31
2021/01/19 01:22:44;;;;;;;49.90;16.73;;;;;;;-16.31;79.24;101093.44;1780849;80;20904;-32
2021/01/19 01:25:13;;;;;;;24.50;8.08;;;;;;;-16.33;79.23;101081.25;1780713;80;20924;-31
2021/01/19 01:27:42;;;;;;;37.40;13.43;;;;;;;-16.38;79.26;101082.05;1780714;80;21210;-32
2021/01/19 01:30:12;;;;;;;36.77;12.03;;;;;;;-16.34;79.43;101086.59;1780732;80;20920;-31
2021/01/19 01:32:50;;;;;;;44.45;14.45;;;;;;;-16.34;79.41;101085.69;1780743;80;21452;-30
2021/01/19 01:35:20;;;;;;;29.00;10.68;;;;;;;-16.34;79.43;101077.91;1780781;80;21145;-31
2021/01/19 01:37:50;;;;;;;24.52;9.68;;;;;;;-16.32;79.51;101088.85;1780758;80;21018;-31
2021/01/19 01:40:23;;;;;;;31.97;11.43;;;;;;;-16.29;79.52;101082.09;1780798;80;21079;-33
2021/01/19 01:42:55;;;;;;;32.28;13.18;;;;;;;-16.28;79.43;101086.67;1780650;80;21050;-32
2021/01/19 01:45:26;;;;;;;33.25;12.82;;;;;;;-16.25;79.48;101086.62;1780758;80;21448;-31
2021/01/19 01:47:56;;;;;;;41.02;12.30;;;;;;;-16.23;79.53;101096.33;1780718;80;20923;-32
2021/01/19 01:50:23;;;;;;;37.30;13.25;;;;;;;-16.19;79.50;101090.94;1780681;80;20935;-30
2021/01/19 01:52:52;;;;;;;27.93;8.45;;;;;;;-16.13;79.42;101091.92;1752755;80;20924;-31
2021/01/19 01:55:20;;;;;;;39.10;14.90;;;;;;;-16.06;79.40;101093.02;1780777;80;20939;-30
2021/01/19 01:57:48;;;;;;;45.48;16.02;;;;;;;-16.02;79.24;101094.22;1752645;80;21366;-30
2021/01/19 02:00:18;;;;;;;41.02;12.50;;;;;;;-16.00;79.08;101096.48;1780734;80;21065;-30
2021/01/19 02:02:57;;;;;;;54.65;15.70;;;;;;;-15.94;79.01;101094.94;1780858;80;21710;-30
2021/01/19 02:05:25;;;;;;;47.25;15.58;;;;;;;-15.93;78.89;101095.11;1780870;80;20917;-32
2021/01/19 02:08:17;;;;;;;54.40;15.75;;;;;;;-15.91;78.83;101100.23;1780882;80;20888;-33
2021/01/19 02:11:32;;;;;;;41.60;14.25;;;;;;;-15.89;78.70;101106.22;1761544;80;21103;-32
2021/01/19 02:14:39;;;;;;;43.33;14.23;;;;;;;-15.87;78.49;101107.21;1780152;80;20943;-32
2021/01/19 02:17:33;;;;;;;37.42;11.65;;;;;;;-15.87;78.28;101118.73;1780875;80;20995;-31
2021/01/19 02:20:49;;;;;;;34.30;11.68;;;;;;;-15.88;78.15;101110.45;1777317;80;20872;-32
2021/01/19 02:23:34;;;;;;;39.88;13.00;;;;;;;-15.90;78.11;101115.25;1775308;80;20944;-31
2021/01/19 02:26:32;;;;;;;28.20;10.08;;;;;;;-15.91;78.01;101113.50;1775211;80;21762;-32
2021/01/19 02:29:21;;;;;;;35.33;10.90;;;;;;;-15.93;77.87;101112.48;1774022;80;21078;-32
2021/01/19 02:32:12;;;;;;;37.08;13.53;;;;;;;-15.96;77.82;101107.56;1761835;80;20971;-32
2021/01/19 02:34:53;;;;;;;23.90;9.55;;;;;;;-16.02;77.75;101100.42;1775112;80;21033;-32
2021/01/19 02:37:26;;;;;;;29.27;9.55;;;;;;;-16.07;77.65;101098.72;1775121;80;20904;-34
2021/01/19 02:40:10;;;;;;;29.63;10.32;;;;;;;-16.10;77.46;101104.97;1774812;80;21441;-33
2021/01/19 02:42:46;;;;;;;34.18;10.72;;;;;;;-16.16;77.48;101105.61;1753809;80;21499;-32
2021/01/19 02:45:14;;;;;;;28.17;8.68;;;;;;;-16.23;77.54;101104.13;1774612;80;20999;-30
2021/01/19 02:47:42;;;;;;;48.87;14.00;;;;;;;-16.24;77.59;101111.94;1775061;80;21184;-29
2021/01/19 02:50:12;;;;;;;14.20;5.60;;;;;;;-16.29;77.43;101107.23;1775125;80;20935;-30
2021/01/19 02:52:40;;;;;;;25.55;7.95;;;;;;;-16.34;77.48;101100.57;1775129;80;22356;-31
2021/01/19 02:55:11;;;;;;;36.30;12.33;;;;;;;-16.40;77.46;101109.55;1753538;80;21375;-30
2021/01/19 02:57:44;;;;;;;37.08;11.75;;;;;;;-16.44;77.54;101109.07;1775097;80;20975;-31
2021/01/19 03:00:51;;;;;;;27.67;10.55;;;;;;;-16.43;77.56;101110.83;1759355;80;21568;-32
2021/01/19 03:03:19;;;;;;;31.37;7.78;;;;;;;-16.49;77.45;101105.78;1773744;80;21007;-31
2021/01/19 03:05:47;;;;;;;29.18;9.58;;;;;;;-16.49;77.45;101102.41;1753321;80;21486;-31
2021/01/19 03:08:15;;;;;;;34.38;11.93;;;;;;;-16.54;77.49;101099.48;1752918;80;20994;-31
2021/01/19 03:10:43;;;;;;;30.32;10.43;;;;;;;-16.56;77.53;101103.38;1753393;80;20928;-31
2021/01/19 03:13:13;;;;;;;37.50;11.18;;;;;;;-16.57;77.61;101099.53;1753571;80;21156;-31
2021/01/19 03:15:41;;;;;;;33.78;10.03;;;;;;;-16.58;77.64;101106.08;1775180;80;21406;-30
2021/01/19 03:18:10;;;;;;;35.43;13.32;;;;;;;-16.59;77.65;101106.80;1775065;80;22282;-31
2021/01/19 03:20:39;;;;;;;42.03;12.10;;;;;;;-16.60;77.71;101105.05;1774804;80;21015;-31
2021/01/19 03:23:06;;;;;;;30.35;10.32;;;;;;;-16.61;77.74;101110.38;1775017;80;21043;-32
2021/01/19 03:25:34;;;;;;;31.87;9.95;;;;;;;-16.61;77.75;101110.73;1775078;80;20916;-31
2021/01/19 03:28:03;;;;;;;33.67;12.28;;;;;;;-16.61;77.73;101109.48;1775052;80;21047;-31
2021/01/19 03:30:31;;;;;;;18.77;7.50;;;;;;;-16.61;77.76;101116.92;1774975;80;21382;-32
2021/01/19 03:32:59;;;;;;;37.15;14.03;;;;;;;-16.61;77.78;101120.64;1775024;80;21070;-30
2021/01/19 03:35:27;;;;;;;26.07;9.83;;;;;;;-16.62;77.77;101121.37;1775027;80;20971;-31
2021/01/19 03:37:55;;;;;;;44.88;12.75;;;;;;;-16.62;77.78;101117.65;1775015;80;20885;-30
2021/01/19 03:40:23;;;;;;;45.03;14.50;;;;;;;-16.61;77.83;101118.16;1775031;80;20928;-31
2021/01/19 03:42:51;;;;;;;42.53;13.70;;;;;;;-16.62;77.80;101116.41;1775059;80;21300;-30
2021/01/19 03:45:19;;;;;;;29.60;10.72;;;;;;;-16.62;77.81;101120.12;1775027;80;21039;-31
2021/01/19 03:47:47;;;;;;;30.15;10.88;;;;;;;-16.65;77.80;101128.50;1774984;80;20995;-31
2021/01/19 03:50:28;;;;;;;36.85;11.38;;;;;;;-16.63;77.84;101129.53;1775093;80;21529;-31
2021/01/19 03:52:57;;;;;;;29.20;9.93;;;;;;;-16.65;77.83;101128.50;1775140;80;21390;-31
2021/01/19 03:55:25;;;;;;;37.00;11.97;;;;;;;-16.66;77.81;101120.55;1775089;80;21369;-31
2021/01/19 03:57:52;;;;;;;24.37;8.20;;;;;;;-16.68;77.85;101122.00;1774993;80;20952;-30
2021/01/19 04:00:21;;;;;;;38.58;10.85;;;;;;;-16.69;77.88;101126.44;1774996;80;21006;-30
2021/01/19 04:02:49;;;;;;;36.03;13.75;;;;;;;-16.69;77.79;101122.72;1774942;80;20983;-30
2021/01/19 04:05:17;;;;;;;14.20;6.22;;;;;;;-16.69;77.78;101121.48;1775003;80;20979;-33
2021/01/19 04:07:45;;;;;;;21.65;6.65;;;;;;;-16.70;77.72;101125.55;1775038;80;21263;-31
2021/01/19 04:10:14;;;;;;;35.13;7.65;;;;;;;-16.72;77.78;101129.47;1775018;80;21051;-30
2021/01/19 04:12:42;;;;;;;23.90;8.45;;;;;;;-16.71;77.76;101136.56;1775128;80;20916;-31
2021/01/19 04:15:11;;;;;;;34.08;13.38;;;;;;;-16.74;77.68;101143.69;1774980;80;20936;-30
2021/01/19 04:17:39;;;;;;;33.10;11.20;;;;;;;-16.79;77.74;101146.58;1774966;80;20972;-30
2021/01/19 04:20:09;;;;;;;40.88;13.90;;;;;;;-16.80;77.63;101143.93;1775823;80;21379;-30
2021/01/19 04:22:36;;;;;;;46.42;14.23;;;;;;;-16.83;77.54;101149.82;1780788;80;20979;-30
2021/01/19 04:25:09;;;;;;;10.68;4.72;;;;;;;-16.86;77.57;101150.38;1780742;80;20947;-30
2021/01/19 04:27:37;;;;;;;29.82;11.35;;;;;;;-16.89;77.45;101159.97;1780847;80;21581;-31
2021/01/19 04:30:07;;;;;;;30.23;10.85;;;;;;;-16.95;77.50;101163.92;1780765;80;20975;-31
2021/01/19 04:32:38;;;;;;;22.07;8.50;;;;;;;-16.97;77.59;101165.37;1780701;80;21357;-32
2021/01/19 04:35:07;;;;;;;24.63;8.35;;;;;;;-16.95;77.62;101163.92;1780667;80;21023;-33
2021/01/19 04:37:36;;;;;;;36.40;14.00;;;;;;;-16.95;77.64;101170.50;1780865;80;21011;-31
2021/01/19 04:40:06;;;;;;;35.92;13.50;;;;;;;-16.98;77.66;101164.03;1780738;80;20975;-31
2021/01/19 04:42:35;;;;;;;29.18;10.18;;;;;;;-17.02;77.67;101162.83;1780853;80;20975;-30
2021/01/19 04:45:05;;;;;;;36.77;12.78;;;;;;;-17.03;77.65;101158.97;1780731;80;21363;-31
2021/01/19 04:47:33;;;;;;;28.42;10.82;;;;;;;-17.07;77.71;101158.63;1780757;80;20943;-33
2021/01/19 04:50:07;;;;;;;27.40;10.98;;;;;;;-17.11;77.70;101161.88;1780740;80;21023;-32
2021/01/19 04:52:35;;;;;;;37.67;13.90;;;;;;;-17.12;77.83;101166.32;1780877;80;20927;-29
2021/01/19 04:55:07;;;;;;;31.40;9.95;;;;;;;-17.14;77.90;101171.10;1780772;80;20927;-30
2021/01/19 04:57:39;;;;;;;16.15;6.50;;;;;;;-17.16;77.91;101177.88;1780759;80;21438;-31
2021/01/19 05:00:16;;;;;;;53.42;14.58;;;;;;;-17.19;78.06;101175.95;1780745;80;21506;-35
2021/01/19 05:03:04;;;;;;;31.40;11.73;;;;;;;-17.20;78.14;101179.14;1780774;80;20919;-37
2021/01/19 05:05:42;;;;;;;28.20;11.10;;;;;;;-17.21;78.15;101181.10;1780738;80;20931;-31
2021/01/19 05:08:27;;;;;;;18.77;7.60;;;;;;;-17.22;78.26;101178.11;1780768;80;20991;-31
2021/01/19 05:11:00;;;;;;;20.15;8.85;;;;;;;-17.22;78.38;101179.34;1780798;80;21198;-31
2021/01/19 05:13:52;;;;;;;36.00;11.70;;;;;;;-17.22;78.49;101182.69;1780668;80;21022;-32
2021/01/19 05:16:30;;;;;;;37.60;9.73;;;;;;;-17.22;78.54;101185.53;1780747;80;20987;-31
2021/01/19 05:18:59;;;;;;;36.10;13.08;;;;;;;-17.22;78.64;101190.48;1780579;80;20991;-32
2021/01/19 05:21:27;;;;;;;43.73;14.18;;;;;;;-17.23;78.65;101189.97;1777357;80;21074;-30
2021/01/19 05:23:56;;;;;;;32.63;11.70;;;;;;;-17.24;78.58;101193.17;1775006;80;21204;-31
2021/01/19 05:26:25;;;;;;;42.30;14.68;;;;;;;-17.22;78.74;101195.44;1775028;80;20955;-32
2021/01/19 05:28:54;;;;;;;38.78;11.88;;;;;;;-17.22;78.89;101190.11;1774933;80;20920;-30
2021/01/19 05:31:27;;;;;;;44.77;14.78;;;;;;;-17.18;78.87;101191.32;1774994;80;21481;-31
2021/01/19 05:34:01;;;;;;;30.17;10.28;;;;;;;-17.17;78.88;101191.84;1775096;80;21383;-31
2021/01/19 05:36:46;;;;;;;41.80;14.23;;;;;;;-17.12;78.95;101191.09;1775093;80;21202;-31
2021/01/19 05:39:22;;;;;;;28.35;8.78;;;;;;;-17.05;78.85;101198.09;1775075;80;21366;-30
2021/01/19 05:41:52;;;;;;;30.30;9.93;;;;;;;-17.05;78.85;101198.09;1775166;80;20987;-32
2021/01/19 05:44:23;;;;;;;42.00;14.38;;;;;;;-17.00;78.98;101195.20;1775085;80;20991;-31
2021/01/19 05:47:03;;;;;;;39.63;13.38;;;;;;;-16.97;78.97;101199.20;1775282;80;20920;-32
2021/01/19 05:49:43;;;;;;;33.23;10.78;;;;;;;-16.94;78.95;101197.03;1775154;80;21449;-32
2021/01/19 05:52:15;;;;;;;38.67;13.00;;;;;;;-16.91;78.96;101205.67;1775011;80;21022;-32
2021/01/19 05:54:45;;;;;;;40.63;13.70;;;;;;;-16.87;78.94;101209.32;1774942;80;20980;-31
2021/01/19 05:57:22;;;;;;;28.32;10.93;;;;;;;-16.83;78.91;101206.81;1775036;80;21734;-30
2021/01/19 05:59:55;;;;;;;30.30;11.20;;;;;;;-16.80;78.81;101209.61;1775084;80;21422;-30
2021/01/19 06:02:36;;;;;;;17.30;9.10;;;;;;;-16.78;78.77;101214.02;1775181;80;21367;-32
2021/01/19 06:05:14;;;;;;;44.20;14.20;;;;;;;-16.74;78.73;101218.91;1775046;80;21178;-29
2021/01/19 06:07:48;;;;;;;26.95;10.70;;;;;;;-16.71;78.68;101212.16;1775100;80;20916;-31
2021/01/19 06:10:20;;;;;;;33.75;12.88;;;;;;;-16.68;78.60;101210.84;1775195;80;20967;-32
2021/01/19 06:12:48;;;;;;;28.70;8.55;;;;;;;-16.64;78.61;101210.47;1775144;80;21497;-31
2021/01/19 06:15:26;;;;;;;38.35;12.98;;;;;;;-16.60;78.52;101206.68;1753464;80;21385;-32
2021/01/19 06:17:54;;;;;;;28.70;8.40;;;;;;;-16.56;78.52;101214.08;1774964;80;20947;-31
2021/01/19 06:20:22;;;;;;;32.45;10.13;;;;;;;-16.52;78.39;101220.76;1775149;80;21007;-31
2021/01/19 06:22:50;;;;;;;43.60;13.95;;;;;;;-16.45;78.26;101216.42;1775093;80;20940;-32
2021/01/19 06:25:18;;;;;;;35.85;12.45;;;;;;;-16.38;78.16;101213.83;1775138;80;21395;-31
2021/01/19 06:27:46;;;;;;;22.22;9.33;;;;;;;-16.30;77.95;101210.52;1775022;80;21280;-30
2021/01/19 06:30:16;;;;;;;35.95;12.47;;;;;;;-16.23;77.77;101214.50;1775033;80;20987;-31
2021/01/19 06:32:50;;;;;;;26.42;10.35;;;;;;;-16.14;77.73;101216.69;1775173;80;20940;-31
2021/01/19 06:35:21;;;;;;;20.90;6.57;;;;;;;-16.05;77.17;101213.88;1775429;80;21504;-31
2021/01/19 06:37:53;;;;;;;38.55;13.70;;;;;;;-15.98;76.51;101213.23;1774963;80;21709;-31
2021/01/19 06:40:23;;;;;;;44.27;15.08;;;;;;;-15.97;76.32;101213.41;1775110;80;21301;-31
2021/01/19 06:42:58;;;;;;;34.50;12.95;;;;;;;-15.92;76.21;101209.77;1775078;80;21003;-31
2021/01/19 06:45:26;;;;;;;;;;;;;;;-15.86;76.08;101214.80;1777759;80;21517;-30
2021/01/19 06:47:56;;;;;;;31.93;10.90;;;;;;;-15.78;76.03;101216.45;1775211;80;20656;-31
2021/01/19 06:50:26;;;;;;;33.42;11.12;;;;;;;-15.72;75.81;101209.95;1775151;80;20943;-30
2021/01/19 06:53:23;;;;;;;40.20;13.78;;;;;;;-15.69;75.67;101217.35;1775069;80;21203;-33
2021/01/19 06:56:09;;;;;;;29.02;11.05;;;;;;;-15.63;75.48;101219.19;1753292;80;20932;-30
2021/01/19 06:58:48;;;;;;;37.88;11.55;;;;;;;-15.55;75.47;101214.98;1775080;80;20991;-32
2021/01/19 07:01:31;;;;;;;38.15;12.28;;;;;;;-15.46;75.11;101219.98;1774993;80;21066;-31
2021/01/19 07:04:16;;;;;;;25.55;10.40;;;;;;;-15.40;75.01;101220.95;1775030;80;20979;-32
2021/01/19 07:07:06;;;;;;;26.07;10.10;;;;;;;-15.33;74.67;101219.19;1775201;80;22245;-31
2021/01/19 07:10:13;;;;;;;19.17;6.20;;;;;;;-15.26;74.25;101226.89;1775099;80;21034;-32
2021/01/19 07:12:58;;;;;;;17.07;7.22;;;;;;;-15.23;73.46;101222.21;1775008;80;20947;-30
2021/01/19 07:15:57;;;;;;;38.88;11.40;;;;;;;-15.24;73.59;101220.84;1775262;80;21039;-31
2021/01/19 07:18:54;;;;;;;24.52;9.08;;;;;;;-15.24;73.48;101224.19;1775198;80;21398;-30
2021/01/19 07:21:22;;;;;;;32.35;12.73;;;;;;;-15.19;73.31;101220.53;1760810;80;23177;-32
2021/01/19 07:24:08;;;;;;;34.00;11.03;;;;;;;-15.19;73.37;101220.91;1755306;80;20987;-31
2021/01/19 07:26:38;;;;;;;27.58;8.95;;;;;;;-15.17;73.38;101218.21;1783590;80;20991;-32
2021/01/19 07:29:07;;;;;;;30.97;11.50;;;;;;;-15.10;73.15;101225.52;1755562;80;20999;-32
2021/01/19 07:31:35;;;;;;;21.55;8.73;;;;;;;-15.11;73.06;101218.80;1783688;80;20915;-34
2021/01/19 07:34:05;;;;;;;29.18;9.23;;;;;;;-15.09;73.18;101217.33;1783555;80;21197;-30
2021/01/19 07:36:33;;;;;;;24.23;9.40;;;;;;;-15.05;72.99;101221.86;1783554;80;20999;-31
2021/01/19 07:39:14;;;;;;;29.98;12.18;;;;;;;-15.00;73.06;101221.45;1783556;80;20899;-32
2021/01/19 07:41:42;;;;;;;33.13;12.43;;;;;;;-14.96;72.91;101219.78;1783560;80;20931;-33
2021/01/19 07:44:23;;;;;;;34.67;13.93;;;;;;;-14.92;72.93;101213.13;1783543;80;20983;-31
2021/01/19 07:46:53;;;;;;;37.65;13.15;;;;;;;-14.84;72.94;101213.48;1779666;80;21082;-34
2021/01/19 07:49:31;;;;;;;35.28;9.98;;;;;;;-14.75;72.50;101219.34;1783491;80;21098;-33
2021/01/19 07:52:08;;;;;;;22.52;7.53;;;;;;;-14.75;71.84;101222.19;1783541;80;20971;-31
2021/01/19 07:54:36;;;;;;;17.95;7.47;;;;;;;-14.79;71.81;101222.24;1783550;80;21027;-31
2021/01/19 07:57:15;;;;;;;49.40;13.78;;;;;;;-14.71;71.61;101220.50;1783592;80;20935;-30
2021/01/19 07:59:43;;;;;;;17.57;7.25;;;;;;;-14.75;71.43;101229.64;1783586;80;21206;-31
2021/01/19 08:02:22;;;;;;;25.65;8.70;;;;;;;-14.71;71.42;101236.66;1783454;80;20923;-31
2021/01/19 08:05:08;;;;;;;19.60;8.45;;;;;;;-14.71;71.14;101235.41;1783571;80;20971;-32
2021/01/19 08:07:42;;;;;;;33.73;13.72;;;;;;;-14.65;71.12;101243.45;1783610;80;28360;-32
2021/01/19 08:10:25;;;;;;;35.90;11.78;;;;;;;-14.61;71.32;101239.28;1783566;80;20991;-30
2021/01/19 08:12:55;;;;;;;23.55;8.33;;;;;;;-14.54;71.10;101243.20;1783547;80;21363;-33
2021/01/19 08:15:31;;;;;;;42.85;14.33;;;;;;;-14.51;70.53;101250.09;1783512;80;20983;-30
2021/01/19 08:18:00;;;;;;;45.67;14.23;;;;;;;-14.55;70.40;101246.42;1783615;80;21530;-30
2021/01/19 08:20:32;;;;;;;37.88;13.55;;;;;;;-14.51;70.75;101242.63;1780990;80;21141;-30
2021/01/19 08:23:17;;;;;;;42.30;16.10;;;;;;;-14.34;70.54;101239.23;1781244;80;20971;-32
2021/01/19 08:25:45;;;;;;;32.15;12.85;;;;;;;-14.24;70.24;101239.73;1780867;80;21379;-31
2021/01/19 08:28:14;;;;;;;29.05;8.95;;;;;;;-14.21;70.03;101238.42;1780708;80;21006;-31
2021/01/19 08:30:44;;;;;;;41.13;13.90;;;;;;;-14.10;69.08;101248.14;1780699;80;20924;-35
2021/01/19 08:33:12;;;;;;;29.02;9.45;;;;;;;-14.09;69.08;101247.40;1780706;80;20924;-31
2021/01/19 08:35:41;;;;;;;35.78;12.75;;;;;;;-14.04;68.88;101237.50;1780796;80;20999;-31
2021/01/19 08:38:09;;;;;;;36.65;11.68;;;;;;;-14.05;67.96;101237.34;1752711;80;21936;-31
2021/01/19 08:40:40;;;;;;;27.60;11.53;;;;;;;-14.10;68.15;101245.64;1752857;80;21003;-33
2021/01/19 08:43:09;;;;;;;27.60;9.15;;;;;;;-14.08;67.80;101227.11;1752953;80;21521;-32
2021/01/19 08:45:38;;;;;;;42.43;13.53;;;;;;;-14.09;67.76;101231.57;1780752;80;21022;-32
2021/01/19 08:48:09;;;;;;;35.88;11.73;;;;;;;-14.16;67.54;101235.98;1780812;80;21536;-32
2021/01/19 08:50:41;;;;;;;27.98;8.75;;;;;;;-14.18;68.09;101235.32;1780753;80;22427;-30
2021/01/19 08:53:12;;;;;;;26.48;9.40;;;;;;;-14.12;68.00;101229.70;1780674;80;21030;-31
2021/01/19 08:55:46;;;;;;;43.05;13.48;;;;;;;-14.12;67.96;101231.30;1780805;80;21303;-32
2021/01/19 08:58:20;;;;;;;40.70;13.00;;;;;;;-14.21;67.68;101229.71;1779952;80;20951;-32
2021/01/19 09:00:49;;;;;;;47.73;16.25;;;;;;;-14.22;67.92;101235.77;1780723;80;21027;-31
2021/01/19 09:03:18;;;;;;;27.75;9.28;;;;;;;-14.18;68.17;101225.02;1780754;80;21359;-32
2021/01/19 09:05:47;;;;;;;40.65;13.68;;;;;;;-13.99;67.99;101220.51;1776681;80;21011;-33
2021/01/19 09:08:18;;;;;;;14.18;6.83;;;;;;;-13.91;67.90;101227.06;1780682;80;20994;-31
2021/01/19 09:10:46;;;;;;;22.02;7.72;;;;;;;-13.65;67.57;101238.89;1780738;80;20995;-32
2021/01/19 09:13:15;;;;;;;39.50;13.78;;;;;;;-13.53;66.35;101237.53;1780723;80;20991;-32
2021/01/19 09:15:44;;;;;;;32.30;12.00;;;;;;;-13.52;65.61;101229.67;1752701;80;21476;-32
2021/01/19 09:18:14;;;;;;;34.90;12.70;;;;;;;-13.39;65.65;101227.89;1780617;80;20935;-31
2021/01/19 09:20:42;;;;;;;50.45;15.35;;;;;;;-13.28;65.88;101229.75;1780720;80;20971;-30
2021/01/19 09:23:17;;;;;;;37.42;12.18;;;;;;;-13.08;65.51;101234.40;1776462;80;21011;-30
2021/01/19 09:25:46;;;;;;;32.00;11.55;;;;;;;-12.96;64.53;101231.73;1775016;80;20912;-32
2021/01/19 09:28:15;;;;;;;22.67;8.28;;;;;;;-13.01;64.41;101231.34;1774927;80;21369;-30
2021/01/19 09:30:43;;;;;;;41.98;15.15;;;;;;;-13.16;64.20;101231.22;1774896;80;20940;-30
2021/01/19 09:33:12;;;;;;;46.15;15.08;;;;;;;-13.37;64.64;101229.79;1774927;80;20880;-31
2021/01/19 09:35:41;;;;;;;41.65;14.65;;;;;;;-13.38;65.32;101226.80;1774963;80;21403;-31
2021/01/19 09:39:34;;;;;;;40.05;13.80;;;;;;;-13.09;64.51;101218.55;1816190;79;21991;-31
2021/01/19 09:42:04;;;;;;;31.15;10.68;;;;;;;-13.03;64.54;101215.34;1789213;80;20892;-31
2021/01/19 09:44:33;;;;;;;30.40;10.05;;;;;;;-12.96;64.04;101220.90;1789343;80;21478;-31
2021/01/19 09:47:03;;;;;;;35.75;11.80;;;;;;;-13.00;63.55;101214.75;1789207;80;20888;-31
2021/01/19 09:49:31;;;;;;;38.17;13.48;;;;;;;-13.05;63.74;101213.09;1789293;80;21034;-31
2021/01/19 09:52:13;;;;;;;36.42;12.80;;;;;;;-12.94;63.87;101211.94;1789100;80;21525;-32
2021/01/19 09:54:41;;;;;;;32.53;10.65;;;;;;;-12.90;63.89;101210.21;1789339;80;20919;-30
2021/01/19 09:57:09;;;;;;;16.35;5.72;;;;;;;-12.68;63.68;101210.84;1789245;80;22632;-32
2021/01/19 09:59:39;;;;;;;32.58;11.08;;;;;;;-12.62;61.78;101203.89;1789289;80;21568;-33
2021/01/19 10:02:08;;;;;;;31.40;13.93;;;;;;;-12.71;62.62;101204.85;1789223;80;20974;-31
2021/01/19 10:04:37;;;;;;;34.73;12.65;;;;;;;-12.62;62.15;101198.55;1789188;80;21002;-32
2021/01/19 10:07:08;;;;;;;44.45;15.70;;;;;;;-12.45;62.21;101188.77;1789096;80;21013;-32
2021/01/19 10:09:37;;;;;;;40.58;15.23;;;;;;;-12.36;62.60;101190.28;1789367;80;22168;-32
2021/01/19 10:12:08;;;;;;;46.90;16.95;;;;;;;-12.17;62.68;101192.36;1789124;80;21050;-31
2021/01/19 10:14:38;;;;;;;33.08;12.98;;;;;;;-11.92;62.39;101187.27;1789376;80;21395;-31
2021/01/19 10:17:08;;;;;;;38.45;13.20;;;;;;;-11.78;61.69;101185.56;1786315;80;21006;-30
2021/01/19 10:19:37;;;;;;;37.58;12.25;;;;;;;-11.80;61.25;101184.92;1789334;80;20986;-32
2021/01/19 10:22:09;;;;;;;28.77;10.10;;;;;;;-12.09;59.87;101184.28;1789245;80;21274;-31
2021/01/19 10:24:43;;;;;;;35.10;12.40;;;;;;;-12.50;61.23;101189.10;1789171;80;21343;-32
2021/01/19 10:27:11;;;;;;;21.80;9.23;;;;;;;-12.85;61.87;101187.79;1755396;80;21045;-30
2021/01/19 10:29:41;;;;;;;24.82;9.18;;;;;;;-13.15;62.50;101182.72;1789199;80;20986;-29
2021/01/19 10:32:14;;;;;;;32.93;9.80;;;;;;;-13.32;63.25;101186.22;1789271;80;21492;-31
2021/01/19 10:34:49;;;;;;;40.28;15.78;;;;;;;-13.53;63.72;101182.72;1789235;80;21437;-31
2021/01/19 10:37:17;;;;;;;50.52;16.37;;;;;;;-13.63;64.06;101183.50;1789292;80;20998;-33
2021/01/19 10:39:58;;;;;;;27.90;10.72;;;;;;;-13.65;64.53;101180.36;1781794;80;20979;-31
2021/01/19 10:42:29;;;;;;;43.20;15.60;;;;;;;-13.50;64.57;101184.23;1780341;80;21050;-31
2021/01/19 10:44:59;;;;;;;50.58;16.82;;;;;;;-13.47;64.50;101188.64;1781532;80;20920;-32
2021/01/19 10:47:28;;;;;;;24.40;9.35;;;;;;;-13.42;64.73;101187.39;1781400;80;21473;-32
2021/01/19 10:49:56;;;;;;;36.42;13.88;;;;;;;-13.30;64.92;101181.00;1781018;80;20975;-31
2021/01/19 10:52:24;;;;;;;38.20;14.03;;;;;;;-13.25;64.88;101186.40;1780840;80;20935;-30
2021/01/19 10:54:55;;;;;;;32.48;8.75;;;;;;;-13.22;64.85;101189.55;1780902;80;20951;-30
2021/01/19 10:57:22;;;;;;;40.33;13.83;;;;;;;-13.35;64.30;101192.56;1780939;80;20932;-32
2021/01/19 10:59:50;;;;;;;44.03;16.02;;;;;;;-13.38;64.80;101190.66;1780857;80;21458;-32
2021/01/19 11:02:18;;;;;;;33.00;11.75;;;;;;;-13.18;64.74;101194.92;1780836;80;21014;-31
2021/01/19 11:04:47;;;;;;;43.63;14.78;;;;;;;-12.98;64.01;101189.97;1780879;80;20999;-31
2021/01/19 11:07:15;;;;;;;38.55;14.68;;;;;;;-13.06;63.84;101180.56;1780863;80;20983;-32
2021/01/19 11:09:43;;;;;;;45.38;14.18;;;;;;;-13.14;63.79;101190.70;1780925;80;20931;-32
2021/01/19 11:12:11;;;;;;;30.97;10.28;;;;;;;-13.18;64.11;101190.32;1780830;80;21431;-30
2021/01/19 11:14:39;;;;;;;38.58;12.65;;;;;;;-13.31;64.16;101194.20;1780795;80;20991;-32
2021/01/19 11:17:07;;;;;;;28.27;10.20;;;;;;;-13.40;64.41;101189.65;1780916;80;20987;-33
2021/01/19 11:19:36;;;;;;;48.15;17.15;;;;;;;-13.51;64.43;101189.07;1780833;80;20987;-33
2021/01/19 11:22:09;;;;;;;37.58;14.33;;;;;;;-13.56;64.88;101199.89;1780818;80;20892;-32
2021/01/19 11:24:36;;;;;;;39.13;14.50;;;;;;;-13.53;64.96;101191.80;1780819;80;21375;-35
2021/01/19 11:27:04;;;;;;;34.33;12.82;;;;;;;-13.51;65.04;101197.79;1780752;80;20892;-31
2021/01/19 11:29:32;;;;;;;48.95;15.20;;;;;;;-13.46;65.28;101189.14;1780863;80;20947;-32